Time;durP1;ratioP1;P1;durP2;ratioP2;P2;SDS_P1;SDS_P2;PMS_P1;PMS_P2;Temp;Humidity;BMP_temperature;BMP_pressure;BME280_temperature;BME280_humidity;BME280_pressure;Samples;Min_cycle;Max_cycle;Signal;HPM_P1;HPM_P2
2021/07/19 00:00:58;;;;;;;16.17;7.07;;;;;;;13.56;83.65;91188.84;4955724;28;20455;-87
2021/07/19 00:03:29;;;;;;;15.07;7.75;;;;;;;13.47;83.78;91190.16;4956037;28;20480;-87
2021/07/19 00:06:08;;;;;;;15.63;8.00;;;;;;;13.36;83.89;91182.81;4955738;28;20456;-88
2021/07/19 00:08:44;;;;;;;17.17;7.75;;;;;;;13.54;83.15;91177.22;4971323;28;20031;-88
2021/07/19 00:11:21;;;;;;;16.52;8.77;;;;;;;13.39;82.86;91166.41;4971580;28;20517;-87
2021/07/19 00:13:58;;;;;;;16.33;7.80;;;;;;;13.30;83.35;91178.91;4956069;28;20113;-88
2021/07/19 00:16:38;;;;;;;12.23;6.15;;;;;;;13.18;83.65;91176.34;4951776;28;20046;-87
2021/07/19 00:19:05;;;;;;;11.75;6.65;;;;;;;13.19;84.20;91167.41;4937102;29;20023;-84
2021/07/19 00:21:46;;;;;;;13.27;6.30;;;;;;;13.24;84.21;91179.50;4920495;29;20030;-87
2021/07/19 00:24:21;;;;;;;16.25;6.78;;;;;;;13.23;84.12;91183.19;4937172;29;20024;-87
2021/07/19 00:27:00;;;;;;;9.40;5.68;;;;;;;13.13;84.31;91174.72;4950988;28;20027;-87
2021/07/19 00:29:30;;;;;;;15.40;6.70;;;;;;;13.10;84.10;91175.41;4951940;29;20030;-87
2021/07/19 00:32:03;;;;;;;16.50;7.53;;;;;;;13.01;83.97;91172.19;4952486;28;20027;-87
2021/07/19 00:34:42;;;;;;;15.07;7.80;;;;;;;12.99;84.10;91163.16;4967432;28;20046;-91
2021/07/19 00:37:09;;;;;;;12.95;7.28;;;;;;;13.13;83.84;91171.34;4973728;28;20503;-88
2021/07/19 00:39:46;;;;;;;15.88;6.97;;;;;;;13.09;84.08;91165.28;4953217;29;20523;-87
2021/07/19 00:42:26;;;;;;;12.80;6.40;;;;;;;13.05;84.54;91156.59;4967482;28;20043;-87
2021/07/19 00:45:04;;;;;;;15.25;7.28;;;;;;;12.97;84.18;91154.88;4982356;28;20031;-87
2021/07/19 00:47:38;;;;;;;14.68;6.82;;;;;;;12.92;84.60;91164.50;4952710;28;20027;-87
2021/07/19 00:50:18;;;;;;;12.57;6.85;;;;;;;12.97;83.74;91160.09;4967622;28;20031;-87
2021/07/19 00:52:58;;;;;;;16.60;7.30;;;;;;;12.89;84.72;91156.56;4967519;28;20488;-86
2021/07/19 00:55:39;;;;;;;13.85;7.05;;;;;;;13.00;84.20;91159.44;4968144;28;20027;-86
2021/07/19 00:58:16;;;;;;;13.00;6.90;;;;;;;12.89;84.44;91154.69;4952570;28;20454;-86
2021/07/19 01:00:46;;;;;;;13.85;5.68;;;;;;;12.94;84.57;91150.34;4955629;29;20027;-87
2021/07/19 01:03:23;;;;;;;12.48;5.97;;;;;;;12.82;84.71;91149.28;4955982;28;20031;-87
2021/07/19 01:06:01;;;;;;;12.13;5.22;;;;;;;12.88;85.51;91153.19;4956191;28;20046;-88
2021/07/19 01:08:39;;;;;;;9.07;4.88;;;;;;;12.80;85.21;91148.88;4971558;28;20535;-86
2021/07/19 01:11:20;;;;;;;11.25;4.97;;;;;;;12.77;85.67;91148.78;4970551;28;20031;-86
2021/07/19 01:13:55;;;;;;;11.55;4.85;;;;;;;12.74;85.99;91141.59;4970580;28;20031;-88
2021/07/19 01:16:33;;;;;;;11.90;5.03;;;;;;;12.81;86.66;91147.78;4956209;29;20042;-87
2021/07/19 01:19:08;;;;;;;8.30;4.82;;;;;;;12.73;85.89;91140.84;4972873;28;20118;-87
2021/07/19 01:22:03;;;;;;;9.27;4.70;;;;;;;12.73;85.46;91150.56;4973433;28;20033;-88
2021/07/19 01:24:48;;;;;;;;;;;;;;;12.71;85.96;91139.66;4971325;28;20027;-87
2021/07/19 01:27:50;;;;;;;10.52;5.53;;;;;;;12.72;84.83;91146.41;4976083;28;20037;-87
2021/07/19 01:30:27;;;;;;;13.18;5.68;;;;;;;12.57;83.93;91142.66;4972642;28;20062;-87
2021/07/19 01:33:04;;;;;;;11.48;4.97;;;;;;;12.58;84.68;91144.16;4959598;28;20015;-87
2021/07/19 01:35:41;;;;;;;12.68;5.70;;;;;;;12.52;85.26;91140.28;4974957;28;20026;-87
2021/07/19 01:38:15;;;;;;;9.43;4.88;;;;;;;12.50;84.72;91139.84;4959788;28;20026;-87
2021/07/19 01:40:46;;;;;;;13.38;6.50;;;;;;;12.31;85.48;91130.78;4990457;28;20022;-87
2021/07/19 01:43:25;;;;;;;10.35;5.63;;;;;;;12.44;85.22;91137.50;4991157;28;20081;-88
2021/07/19 01:46:03;;;;;;;10.15;5.60;;;;;;;12.36;84.92;91141.00;4959736;28;20026;-87
2021/07/19 01:48:38;;;;;;;9.30;5.65;;;;;;;12.20;85.07;91146.19;4959508;28;20034;-87
2021/07/19 01:51:08;;;;;;;11.52;5.35;;;;;;;12.31;84.73;91130.78;5002877;28;20026;-88
2021/07/19 01:53:47;;;;;;;11.63;5.80;;;;;;;12.24;84.76;91133.22;4999257;28;20075;-89
2021/07/19 01:56:20;;;;;;;13.57;6.05;;;;;;;12.08;85.57;91127.16;4961690;28;20030;-86
2021/07/19 01:58:55;;;;;;;13.55;5.80;;;;;;;12.10;85.45;91133.59;4958152;28;20113;-87
2021/07/19 02:01:20;;;;;;;;;;;;;;;12.06;85.63;91131.97;4989353;28;20658;-87
2021/07/19 02:03:53;;;;;;;11.43;5.03;;;;;;;12.03;85.59;91127.41;4989654;28;19910;-87
2021/07/19 02:06:27;;;;;;;10.70;5.35;;;;;;;12.06;85.21;91118.91;4958003;28;20085;-87
2021/07/19 02:09:01;;;;;;;12.23;5.30;;;;;;;11.96;86.40;91120.88;4989314;28;20027;-87
2021/07/19 02:11:41;;;;;;;12.10;5.88;;;;;;;11.97;86.64;91132.09;4972790;28;20081;-87
2021/07/19 02:14:20;;;;;;;9.68;5.22;;;;;;;12.05;86.18;91130.44;4958161;28;20479;-86
2021/07/19 02:16:54;;;;;;;10.65;5.00;;;;;;;11.99;86.25;91139.59;4989168;28;20034;-87
2021/07/19 02:19:36;;;;;;;9.73;4.88;;;;;;;12.03;85.94;91132.63;4957707;28;20050;-87
2021/07/19 02:22:14;;;;;;;8.88;4.53;;;;;;;12.10;85.85;91135.44;4958438;28;20034;-87
2021/07/19 02:24:49;;;;;;;9.57;4.90;;;;;;;12.04;86.23;91136.75;4956389;28;20398;-87
2021/07/19 02:27:24;;;;;;;8.30;4.30;;;;;;;12.07;86.93;91131.63;4973205;28;20095;-87
2021/07/19 02:29:56;;;;;;;15.40;4.38;;;;;;;12.04;87.48;91136.75;4942014;28;20034;-87
2021/07/19 02:32:33;;;;;;;8.73;4.82;;;;;;;12.04;87.24;91131.53;4956647;28;20026;-87
2021/07/19 02:35:12;;;;;;;8.00;4.25;;;;;;;11.90;86.05;91140.47;4941803;28;20491;-89
2021/07/19 02:37:45;;;;;;;8.35;5.00;;;;;;;11.84;86.30;91130.63;4958124;28;20407;-85
2021/07/19 02:40:22;;;;;;;8.30;4.55;;;;;;;11.90;85.46;91137.88;4957608;28;20043;-87
2021/07/19 02:43:04;;;;;;;8.15;4.50;;;;;;;11.84;85.28;91128.75;4957985;28;20451;-86
2021/07/19 02:45:47;;;;;;;9.43;5.05;;;;;;;11.73;85.79;91133.66;4942374;28;20376;-87
2021/07/19 02:48:19;;;;;;;10.55;5.00;;;;;;;11.65;85.31;91136.38;4942015;28;20030;-87
2021/07/19 02:50:52;;;;;;;7.25;4.47;;;;;;;11.70;85.33;91128.31;4956897;28;20033;-87
2021/07/19 02:53:28;;;;;;;8.35;4.68;;;;;;;11.48;85.84;91129.53;4956436;28;20518;-86
2021/07/19 02:56:10;;;;;;;11.77;4.70;;;;;;;11.41;86.88;91131.91;4941498;28;20038;-87
2021/07/19 02:58:49;;;;;;;7.40;4.40;;;;;;;11.39;86.20;91129.66;4942407;28;20035;-87
2021/07/19 03:01:22;;;;;;;7.18;4.30;;;;;;;11.29;85.94;91131.94;4972231;28;20440;-88
2021/07/19 03:03:59;;;;;;;8.52;4.90;;;;;;;11.29;86.67;91135.28;4956484;28;20120;-86
2021/07/19 03:06:39;;;;;;;9.52;5.28;;;;;;;11.27;86.46;91134.84;4941355;28;20030;-86
2021/07/19 03:09:18;;;;;;;11.77;4.88;;;;;;;11.20;87.40;91130.19;4957141;28;20403;-86
2021/07/19 03:12:00;;;;;;;10.20;5.00;;;;;;;11.17;87.13;91125.63;4972556;28;20019;-86
2021/07/19 03:14:36;;;;;;;10.13;4.45;;;;;;;11.29;86.75;91124.88;4979295;23;20041;-86
2021/07/19 03:17:17;;;;;;;7.38;4.50;;;;;;;11.30;86.66;91123.75;4995604;28;20033;-86
2021/07/19 03:19:55;;;;;;;7.80;4.03;;;;;;;11.36;86.52;91119.09;5010832;28;20042;-86
2021/07/19 03:22:31;;;;;;;11.57;4.82;;;;;;;11.27;86.61;91121.81;4979084;28;20030;-86
2021/07/19 03:25:10;;;;;;;7.18;4.47;;;;;;;11.25;87.20;91124.00;4995504;28;20037;-87
2021/07/19 03:27:49;;;;;;;10.15;4.80;;;;;;;11.19;88.63;91120.06;5011343;28;20437;-87
2021/07/19 03:30:29;;;;;;;11.88;5.35;;;;;;;11.21;89.45;91118.66;4979092;28;20037;-87
2021/07/19 03:33:04;;;;;;;9.05;5.25;;;;;;;11.14;87.78;91122.91;4995333;28;20022;-87
2021/07/19 03:35:42;;;;;;;8.60;4.63;;;;;;;11.18;87.52;91126.38;4995953;28;20030;-87
2021/07/19 03:38:19;;;;;;;10.88;4.55;;;;;;;11.31;87.52;91121.91;5010982;28;20026;-86
2021/07/19 03:40:58;;;;;;;11.68;5.25;;;;;;;11.25;88.19;91113.56;5011312;28;20393;-87
2021/07/19 03:43:33;;;;;;;8.05;4.65;;;;;;;11.14;86.46;91117.69;5010704;28;20034;-86
2021/07/19 03:46:18;;;;;;;8.80;5.05;;;;;;;11.09;87.04;91120.50;4995060;28;20116;-87
2021/07/19 03:48:56;;;;;;;;;;;;;;;10.92;86.31;91119.63;5011180;28;20021;-87
2021/07/19 03:51:32;;;;;;;7.32;4.10;;;;;;;10.91;86.64;91125.91;5011921;28;19916;-87
2021/07/19 03:54:09;;;;;;;10.02;4.55;;;;;;;10.90;86.73;91121.03;4994977;28;20112;-88
2021/07/19 03:56:47;;;;;;;10.80;4.53;;;;;;;10.82;87.04;91117.44;4995954;28;20498;-86
2021/07/19 03:59:27;;;;;;;8.77;4.43;;;;;;;11.02;86.97;91126.25;5010502;28;20032;-86
2021/07/19 04:02:08;;;;;;;7.55;4.25;;;;;;;10.95;87.41;91124.22;5010788;28;20037;-86
2021/07/19 04:04:42;;;;;;;10.10;4.47;;;;;;;10.94;87.23;91125.28;4996744;28;20145;-87
2021/07/19 04:07:15;;;;;;;7.82;3.97;;;;;;;11.03;86.52;91125.19;4995081;28;20097;-87
2021/07/19 04:09:55;;;;;;;7.07;4.22;;;;;;;10.92;86.80;91121.50;5010615;28;20017;-86
2021/07/19 04:12:36;;;;;;;10.88;4.72;;;;;;;10.88;86.50;91123.94;4979176;28;20054;-87
2021/07/19 04:15:11;;;;;;;14.25;4.60;;;;;;;10.89;86.48;91122.88;4996183;28;20477;-87
2021/07/19 04:17:49;;;;;;;8.05;4.43;;;;;;;11.03;86.02;91122.59;4995193;28;20061;-87
2021/07/19 04:20:27;;;;;;;9.52;4.88;;;;;;;10.89;86.40;91122.88;5010822;28;20045;-88
2021/07/19 04:23:06;;;;;;;9.00;4.72;;;;;;;10.84;87.61;91125.69;5020478;28;20038;-89
2021/07/19 04:25:45;;;;;;;7.43;4.35;;;;;;;11.01;87.51;91130.72;5001083;28;20079;-87
2021/07/19 04:28:23;;;;;;;9.40;4.60;;;;;;;10.91;86.38;91125.16;4994933;28;20034;-87
2021/07/19 04:30:57;;;;;;;8.27;4.75;;;;;;;10.90;87.55;91124.41;4994597;28;20097;-87
2021/07/19 04:33:33;;;;;;;7.75;4.55;;;;;;;11.04;87.62;91131.16;4978685;28;20021;-87
2021/07/19 04:36:08;;;;;;;10.98;5.00;;;;;;;11.04;87.48;91129.31;5014188;28;20034;-87
2021/07/19 04:38:51;;;;;;;9.07;5.32;;;;;;;11.10;87.19;91129.88;5015040;28;20026;-87
2021/07/19 04:41:26;;;;;;;9.60;5.03;;;;;;;11.17;87.31;91130.09;4998196;28;20060;-88
2021/07/19 04:43:52;;;;;;;7.95;4.53;;;;;;;11.18;86.86;91129.00;5008971;28;20129;-87
2021/07/19 04:46:24;;;;;;;6.70;4.30;;;;;;;11.36;86.66;91130.28;4996740;28;20036;-87
2021/07/19 04:48:58;;;;;;;96.10;40.15;;;;;;;11.47;85.88;91126.16;5013474;28;20030;-86
2021/07/19 04:51:23;;;;;;;;;;;;;;;11.45;85.74;91133.56;4997564;28;20018;-87
2021/07/19 04:53:53;;;;;;;35.13;17.42;;;;;;;11.61;85.59;91122.44;5006137;28;20289;-87
2021/07/19 04:56:28;;;;;;;29.73;15.70;;;;;;;11.51;86.17;91120.28;5013268;28;20402;-87
2021/07/19 04:58:53;;;;;;;19.73;11.10;;;;;;;11.50;86.66;91122.13;5012790;28;20022;-87
2021/07/19 05:01:32;;;;;;;23.50;13.30;;;;;;;11.82;86.81;91130.91;5010209;28;20118;-87
2021/07/19 05:03:58;;;;;;;23.95;13.95;;;;;;;11.79;87.01;91121.09;4997283;28;20030;-87
2021/07/19 05:06:30;;;;;;;25.33;15.23;;;;;;;11.82;87.02;91128.28;4996576;28;20080;-87
2021/07/19 05:08:57;;;;;;;30.63;19.15;;;;;;;11.87;87.12;91133.31;4999101;28;20049;-87
2021/07/19 05:11:29;;;;;;;17.08;11.02;;;;;;;12.10;86.65;91130.97;5009692;28;20018;-87
2021/07/19 05:13:58;;;;;;;18.00;11.15;;;;;;;12.14;87.00;91128.44;4980972;28;20030;-87
2021/07/19 05:16:29;;;;;;;19.48;9.77;;;;;;;12.20;86.56;91119.28;4980215;28;20037;-87
2021/07/19 05:18:55;;;;;;;16.80;9.93;;;;;;;12.29;86.66;91122.50;5009091;28;20062;-87
2021/07/19 05:21:21;;;;;;;17.65;10.55;;;;;;;12.32;87.58;91128.94;4996823;28;20040;-86
2021/07/19 05:23:49;;;;;;;17.35;8.88;;;;;;;12.41;87.61;91119.88;4992842;28;20022;-87
2021/07/19 05:26:16;;;;;;;13.05;8.02;;;;;;;12.56;86.89;91121.00;5006366;28;20393;-87
2021/07/19 05:28:45;;;;;;;10.98;7.70;;;;;;;12.65;87.42;91113.00;5019685;28;20032;-87
2021/07/19 05:31:13;;;;;;;12.23;6.68;;;;;;;12.72;87.46;91128.09;4979235;28;20030;-87
2021/07/19 05:33:42;;;;;;;12.32;6.97;;;;;;;12.79;87.88;91118.59;5012213;28;20037;-86
2021/07/19 05:36:10;;;;;;;8.18;6.10;;;;;;;12.87;87.99;91125.50;5012217;28;20034;-86
2021/07/19 05:38:37;;;;;;;8.90;5.32;;;;;;;12.99;87.71;91118.69;4996098;28;20053;-87
2021/07/19 05:41:09;;;;;;;12.45;5.43;;;;;;;13.12;87.15;91118.28;4995935;28;20040;-86
2021/07/19 05:43:36;;;;;;;9.18;5.43;;;;;;;13.22;87.15;91118.88;4996098;28;20026;-86
2021/07/19 05:46:04;;;;;;;9.52;5.22;;;;;;;13.31;87.31;91122.84;4978904;28;20026;-87
2021/07/19 05:48:33;;;;;;;8.10;5.18;;;;;;;13.48;88.07;91120.97;5013286;28;20026;-86
2021/07/19 05:50:58;;;;;;;11.63;5.82;;;;;;;13.62;88.00;91126.53;4996764;28;20076;-86
2021/07/19 05:53:25;;;;;;;9.70;5.60;;;;;;;13.67;87.07;91118.41;4995851;28;20490;-87
2021/07/19 05:55:52;;;;;;;11.23;5.97;;;;;;;13.79;87.24;91126.16;5012096;28;20076;-87
2021/07/19 05:58:18;;;;;;;9.50;5.28;;;;;;;13.95;86.82;91125.34;5011927;28;20029;-87
2021/07/19 06:00:46;;;;;;;12.25;5.97;;;;;;;14.15;87.08;91126.88;4995057;28;20580;-87
2021/07/19 06:03:11;;;;;;;12.30;6.55;;;;;;;14.30;86.48;91128.69;4976686;28;20380;-87
2021/07/19 06:05:38;;;;;;;9.77;6.10;;;;;;;14.44;86.30;91124.81;4992144;28;20033;-87
2021/07/19 06:08:06;;;;;;;10.82;6.43;;;;;;;14.68;84.39;91121.94;4995980;28;20022;-86
2021/07/19 06:10:34;;;;;;;9.75;5.93;;;;;;;14.85;84.64;91114.75;4995478;28;20036;-87
2021/07/19 06:13:00;;;;;;;10.68;5.88;;;;;;;14.97;85.26;91120.56;4995665;28;20481;-87
2021/07/19 06:15:26;;;;;;;10.02;6.88;;;;;;;15.13;84.65;91117.09;5011399;28;20525;-87
2021/07/19 06:17:54;;;;;;;11.63;6.32;;;;;;;15.26;83.83;91119.19;5011619;28;20026;-87
2021/07/19 06:20:41;;;;;;;9.70;6.50;;;;;;;15.50;85.09;91119.91;4993605;28;20022;-87
2021/07/19 06:23:08;;;;;;;12.10;6.30;;;;;;;15.67;83.84;91113.44;4997811;28;20083;-88
2021/07/19 06:25:36;;;;;;;11.95;6.68;;;;;;;15.77;82.29;91118.84;5010452;28;20014;-87
2021/07/19 06:28:04;;;;;;;10.77;6.00;;;;;;;15.77;81.56;91118.84;4995009;28;20030;-87
2021/07/19 06:30:30;;;;;;;12.25;6.30;;;;;;;15.86;80.40;91128.31;4995008;28;20037;-87
2021/07/19 06:32:56;;;;;;;8.15;5.68;;;;;;;15.98;80.66;91122.88;5011419;28;20017;-87
2021/07/19 06:35:23;;;;;;;9.60;5.38;;;;;;;16.19;79.70;91117.13;4994866;28;20029;-86
2021/07/19 06:37:51;;;;;;;7.75;5.30;;;;;;;16.16;79.53;91115.97;4994614;28;20030;-87
2021/07/19 06:40:19;;;;;;;10.65;5.90;;;;;;;16.28;78.69;91117.59;5011143;28;20032;-87
2021/07/19 06:42:49;;;;;;;10.07;5.70;;;;;;;16.35;77.30;91115.06;4994745;28;20061;-87
2021/07/19 06:45:15;;;;;;;11.10;5.80;;;;;;;16.34;78.88;91118.06;5013030;28;20026;-87
2021/07/19 06:47:46;;;;;;;11.60;5.82;;;;;;;16.43;77.84;91113.25;5012541;28;20487;-87
2021/07/19 06:50:12;;;;;;;8.35;5.70;;;;;;;16.50;77.45;91108.06;5012289;28;20024;-87
2021/07/19 06:52:38;;;;;;;8.88;5.60;;;;;;;16.68;78.80;91109.06;4996433;28;20105;-88
2021/07/19 06:55:04;;;;;;;9.45;5.85;;;;;;;16.83;78.38;91104.72;5013092;28;20085;-87
2021/07/19 06:57:30;;;;;;;9.88;6.32;;;;;;;16.92;75.62;91109.66;4996267;28;20022;-87
2021/07/19 06:59:55;;;;;;;8.27;5.90;;;;;;;16.90;73.99;91115.31;5013199;28;20098;-87
2021/07/19 07:02:21;;;;;;;9.30;5.60;;;;;;;17.04;73.96;91108.69;5013942;28;20033;-87
2021/07/19 07:04:46;;;;;;;9.48;5.30;;;;;;;17.06;72.19;91115.06;4995763;28;20029;-86
2021/07/19 07:07:12;;;;;;;9.55;5.72;;;;;;;17.11;73.66;91101.59;5011224;28;20033;-87
2021/07/19 07:09:38;;;;;;;9.60;5.10;;;;;;;17.36;73.61;91108.94;5011367;28;20018;-87
2021/07/19 07:12:04;;;;;;;12.18;5.60;;;;;;;17.42;72.65;91102.97;5013322;28;20026;-87
2021/07/19 07:14:31;;;;;;;9.95;5.22;;;;;;;17.42;71.08;91102.19;4989826;28;20096;-87
2021/07/19 07:16:57;;;;;;;8.80;4.85;;;;;;;17.53;73.38;91103.06;5016242;28;20456;-88
2021/07/19 07:19:23;;;;;;;7.93;5.65;;;;;;;17.62;72.12;91097.47;4998199;28;20033;-87
2021/07/19 07:21:50;;;;;;;9.20;5.30;;;;;;;17.65;70.19;91094.84;4998498;28;20076;-87
2021/07/19 07:24:17;;;;;;;8.88;5.65;;;;;;;17.59;70.87;91098.94;4998416;28;20025;-87
2021/07/19 07:26:43;;;;;;;8.45;5.32;;;;;;;17.66;70.43;91096.34;5015119;28;20052;-87
2021/07/19 07:29:11;;;;;;;8.50;5.38;;;;;;;17.79;69.67;91098.72;5016071;28;20034;-86
2021/07/19 07:31:37;;;;;;;10.05;5.22;;;;;;;17.89;69.30;91096.16;5014846;28;20049;-87
2021/07/19 07:34:05;;;;;;;8.63;5.28;;;;;;;17.92;69.55;91097.31;4998254;28;20029;-87
2021/07/19 07:36:34;;;;;;;10.95;5.30;;;;;;;18.01;68.88;91095.09;4998283;28;20092;-87
2021/07/19 07:39:00;;;;;;;11.20;5.82;;;;;;;18.10;71.08;91103.44;5016319;28;20021;-87
2021/07/19 07:41:29;;;;;;;7.32;4.82;;;;;;;18.14;70.87;91098.19;5015574;28;20052;-87
2021/07/19 07:43:56;;;;;;;11.05;5.53;;;;;;;18.39;71.32;91098.28;5016994;28;20036;-87
2021/07/19 07:46:23;;;;;;;8.82;5.03;;;;;;;18.39;69.66;91099.03;5021716;28;20080;-88
2021/07/19 07:48:52;;;;;;;10.10;5.53;;;;;;;18.34;67.91;91088.09;5003774;28;20025;-88
2021/07/19 07:51:18;;;;;;;11.48;5.32;;;;;;;18.58;69.41;91092.69;5033564;28;20057;-87
2021/07/19 07:53:44;;;;;;;10.73;5.53;;;;;;;18.68;68.71;91083.28;5011233;28;20038;-87
2021/07/19 07:56:10;;;;;;;8.70;5.30;;;;;;;18.66;69.58;91079.50;5010535;28;20033;-87
2021/07/19 07:58:36;;;;;;;10.23;5.68;;;;;;;18.81;68.59;91083.75;4994105;28;20504;-87
2021/07/19 08:01:05;;;;;;;10.10;5.18;;;;;;;18.83;67.89;91084.09;4993969;28;20029;-87
2021/07/19 08:03:31;;;;;;;9.13;5.40;;;;;;;18.93;68.24;91083.38;5010609;28;20026;-88
2021/07/19 08:05:57;;;;;;;11.55;5.35;;;;;;;19.02;66.81;91080.38;5010189;28;20022;-88
2021/07/19 08:08:23;;;;;;;10.23;5.15;;;;;;;19.13;66.86;91081.16;4996017;28;20441;-88
2021/07/19 08:10:49;;;;;;;9.68;4.85;;;;;;;19.27;67.06;91085.69;5014523;28;20033;-88
2021/07/19 08:13:15;;;;;;;13.07;5.68;;;;;;;19.13;65.22;91081.16;4981952;28;20040;-87
2021/07/19 08:15:47;;;;;;;10.30;5.45;;;;;;;19.30;66.44;91084.94;5013640;28;20490;-89
2021/07/19 08:18:15;;;;;;;13.88;5.45;;;;;;;19.33;66.19;91084.19;4997836;28;20048;-88
2021/07/19 08:20:42;;;;;;;9.80;5.75;;;;;;;19.26;65.53;91084.94;5013444;28;20025;-87
2021/07/19 08:23:10;;;;;;;9.10;4.90;;;;;;;19.31;64.07;91078.53;5014590;28;20028;-86
2021/07/19 08:25:37;;;;;;;10.27;5.05;;;;;;;19.33;63.52;91090.22;5006029;28;20030;-87
2021/07/19 08:28:07;;;;;;;7.38;5.28;;;;;;;19.28;63.46;91089.84;4994013;28;20440;-88
2021/07/19 08:30:33;;;;;;;8.88;5.30;;;;;;;19.23;65.08;91077.00;4978089;28;20113;-87
2021/07/19 08:32:59;;;;;;;10.15;5.32;;;;;;;19.45;65.78;91083.06;4993273;28;20566;-87
2021/07/19 08:35:27;;;;;;;10.50;5.75;;;;;;;19.62;65.60;91081.53;5018308;28;20029;-87
2021/07/19 08:37:58;;;;;;;9.15;4.90;;;;;;;19.69;64.46;91092.13;5015596;28;20030;-87
2021/07/19 08:40:27;;;;;;;10.48;5.35;;;;;;;19.74;63.67;91097.03;5034504;28;20033;-87
2021/07/19 08:42:55;;;;;;;8.80;5.28;;;;;;;19.58;62.74;91092.88;5025773;28;20025;-87
2021/07/19 08:45:23;;;;;;;9.68;5.22;;;;;;;19.62;62.69;91094.75;4996726;28;20025;-87
2021/07/19 08:47:54;;;;;;;8.40;5.78;;;;;;;19.67;63.19;91086.47;5012959;28;20029;-87
2021/07/19 08:50:24;;;;;;;10.80;5.45;;;;;;;19.78;63.59;91089.84;4997062;28;20026;-88
2021/07/19 08:52:53;;;;;;;9.57;5.65;;;;;;;19.81;63.67;91091.72;5015042;28;20022;-87
2021/07/19 08:55:23;;;;;;;11.25;5.55;;;;;;;19.77;61.90;91083.06;5025731;28;20038;-87
2021/07/19 08:57:49;;;;;;;9.45;5.18;;;;;;;19.89;64.21;91080.00;5014507;28;20026;-87
2021/07/19 09:00:18;;;;;;;12.45;5.13;;;;;;;20.04;62.48;91086.78;5013606;28;20080;-87
2021/07/19 09:02:47;;;;;;;9.48;4.93;;;;;;;20.30;62.52;91080.28;4997877;28;20038;-87
2021/07/19 09:05:14;;;;;;;9.38;5.38;;;;;;;20.26;62.60;91089.38;5019580;28;20083;-88
2021/07/19 09:07:44;;;;;;;8.73;4.78;;;;;;;20.34;61.47;91084.81;5016162;28;20374;-88
2021/07/19 09:10:11;;;;;;;9.88;4.93;;;;;;;20.35;60.66;91087.06;5025467;28;20044;-87
2021/07/19 09:12:44;;;;;;;10.57;4.80;;;;;;;20.30;59.59;91079.53;4999361;28;20441;-88
2021/07/19 09:15:11;;;;;;;9.27;4.77;;;;;;;20.40;61.91;91084.03;5022281;23;20050;-87
2021/07/19 09:17:38;;;;;;;7.63;5.10;;;;;;;20.54;60.31;91075.31;5012642;28;20120;-86
2021/07/19 09:20:09;;;;;;;9.05;5.50;;;;;;;20.58;61.85;91078.69;4994890;28;20438;-86
2021/07/19 09:22:37;;;;;;;8.52;4.35;;;;;;;20.69;59.53;91076.72;5003594;28;20030;-86
2021/07/19 09:25:17;;;;;;;10.68;5.10;;;;;;;20.74;56.42;91071.06;5007524;28;20030;-87
2021/07/19 09:28:04;;;;;;;8.30;4.35;;;;;;;20.88;61.04;91074.75;4976996;28;20066;-87
2021/07/19 09:30:33;;;;;;;8.90;4.93;;;;;;;20.96;57.73;91063.72;4998707;28;20037;-89
2021/07/19 09:33:22;;;;;;;8.70;4.50;;;;;;;21.08;60.07;91067.06;5011287;28;20026;-87
2021/07/19 09:35:51;;;;;;;8.02;4.88;;;;;;;20.93;58.32;91067.16;4996833;28;20068;-86
2021/07/19 09:38:19;;;;;;;12.35;4.70;;;;;;;20.91;55.71;91066.78;4995741;28;20018;-86
2021/07/19 09:40:48;;;;;;;10.82;5.00;;;;;;;20.98;56.27;91063.34;4992545;28;20030;-86
2021/07/19 09:43:18;;;;;;;11.90;4.63;;;;;;;20.97;54.54;91067.88;4989369;28;20395;-87
2021/07/19 09:45:45;;;;;;;10.60;4.68;;;;;;;20.97;55.16;91062.59;4981013;28;20038;-86
2021/07/19 09:48:11;;;;;;;11.07;4.90;;;;;;;21.20;59.44;91069.25;5003998;28;20033;-87
2021/07/19 09:50:50;;;;;;;13.38;4.82;;;;;;;21.34;56.71;91058.56;5005503;28;20029;-87
2021/07/19 09:53:31;;;;;;;9.00;4.80;;;;;;;21.44;56.88;91073.63;5002022;28;20026;-86
2021/07/19 09:56:29;;;;;;;16.67;4.50;;;;;;;21.41;52.36;91063.84;4990157;28;20029;-86
2021/07/19 09:59:08;;;;;;;12.48;4.53;;;;;;;21.39;50.43;91063.47;4986411;28;20050;-87
2021/07/19 10:01:38;;;;;;;13.52;4.38;;;;;;;21.41;50.94;91053.22;4983742;28;20050;-86
2021/07/19 10:04:10;;;;;;;14.00;4.72;;;;;;;21.70;53.02;91063.59;4994282;28;20106;-87
2021/07/19 10:06:37;;;;;;;11.20;4.32;;;;;;;21.55;52.28;91056.88;4989036;28;20030;-86
2021/07/19 10:09:05;;;;;;;13.02;5.15;;;;;;;21.83;52.70;91051.31;4995602;28;20072;-87
2021/07/19 10:11:33;;;;;;;10.40;4.40;;;;;;;21.98;54.20;91057.25;5006312;28;20486;-86
2021/07/19 10:13:59;;;;;;;11.07;4.53;;;;;;;22.04;52.04;91053.00;4987277;28;20030;-86
2021/07/19 10:16:30;;;;;;;13.63;4.75;;;;;;;22.09;53.02;91052.59;4973960;28;20557;-87
2021/07/19 10:18:57;;;;;;;15.35;5.00;;;;;;;22.26;52.39;91044.84;5010523;28;20034;-87
2021/07/19 10:21:23;;;;;;;10.55;4.65;;;;;;;22.35;53.64;91048.53;4990888;28;20403;-86
2021/07/19 10:23:49;;;;;;;15.93;4.90;;;;;;;22.60;53.49;91048.22;5010744;28;20026;-87
2021/07/19 10:26:17;;;;;;;12.02;4.60;;;;;;;22.61;51.65;91055.03;5009697;28;20037;-86
2021/07/19 10:28:47;;;;;;;18.00;5.63;;;;;;;22.58;51.10;91049.78;4980459;28;20058;-88
2021/07/19 10:31:13;;;;;;;14.18;4.47;;;;;;;22.70;50.46;91051.91;4992301;28;20022;-87
2021/07/19 10:33:41;;;;;;;11.80;4.75;;;;;;;22.73;48.69;91045.81;4980248;28;20109;-85
2021/07/19 10:36:12;;;;;;;15.93;5.32;;;;;;;22.80;48.18;91048.38;4985369;28;20022;-87
2021/07/19 10:38:45;;;;;;;17.60;5.32;;;;;;;22.68;51.26;91051.53;4981671;28;20026;-88
2021/07/19 10:41:13;;;;;;;13.48;5.15;;;;;;;22.64;47.85;91042.88;5006342;28;20026;-86
2021/07/19 10:43:38;;;;;;;13.35;5.18;;;;;;;22.76;46.82;91039.69;4971735;28;20049;-85
2021/07/19 10:46:13;;;;;;;15.27;4.75;;;;;;;22.83;46.73;91034.28;5001576;28;20103;-86
2021/07/19 10:48:41;;;;;;;17.23;4.80;;;;;;;23.06;45.83;91035.50;5000229;28;20033;-85
2021/07/19 10:51:20;;;;;;;23.17;5.38;;;;;;;23.35;46.25;91041.91;5005250;28;20464;-86
2021/07/19 10:53:47;;;;;;;14.48;4.78;;;;;;;23.24;47.71;91040.56;5001617;28;20036;-86
2021/07/19 10:56:15;;;;;;;17.45;4.80;;;;;;;23.54;50.34;91042.38;5005129;28;20057;-86
2021/07/19 10:58:43;;;;;;;16.88;5.15;;;;;;;23.74;48.79;91037.88;4984361;28;20037;-88
2021/07/19 11:01:31;;;;;;;19.55;5.28;;;;;;;23.67;44.74;91035.34;4997220;28;20104;-86
2021/07/19 11:04:13;;;;;;;15.25;4.63;;;;;;;23.36;43.67;91040.75;4985315;28;20533;-87
2021/07/19 11:06:41;;;;;;;13.95;4.75;;;;;;;23.63;45.99;91037.28;4995217;28;20033;-86
2021/07/19 11:09:11;;;;;;;17.48;4.95;;;;;;;23.48;45.45;91049.31;4983136;28;20022;-86
2021/07/19 11:11:38;;;;;;;16.55;5.13;;;;;;;23.20;47.13;91029.97;5006020;28;20445;-87
2021/07/19 11:14:07;;;;;;;17.42;4.25;;;;;;;23.11;44.64;91033.16;5003067;28;20027;-86
2021/07/19 11:16:46;;;;;;;14.32;4.10;;;;;;;23.31;45.22;91040.44;4990205;28;20815;-87
2021/07/19 11:19:28;;;;;;;10.52;4.30;;;;;;;23.54;42.40;91039.72;5001726;28;20104;-88
2021/07/19 11:22:25;;;;;;;13.65;3.88;;;;;;;23.77;42.05;91039.72;5009022;28;20052;-86
2021/07/19 11:24:52;;;;;;;18.30;4.43;;;;;;;23.81;42.53;91040.41;5000547;28;20042;-86
2021/07/19 11:27:32;;;;;;;13.40;4.15;;;;;;;23.64;42.97;91033.47;5006105;28;20032;-86
2021/07/19 11:30:05;;;;;;;12.80;3.92;;;;;;;23.79;44.11;91034.00;5004840;28;20026;-87
2021/07/19 11:32:31;;;;;;;20.90;4.70;;;;;;;23.74;42.25;91034.47;4994455;28;20025;-87
2021/07/19 11:35:12;;;;;;;16.80;4.97;;;;;;;23.71;45.20;91033.38;4997051;28;20030;-87
2021/07/19 11:37:41;;;;;;;15.43;5.07;;;;;;;23.95;42.30;91036.00;4994479;28;20033;-88
2021/07/19 11:40:08;;;;;;;15.60;4.45;;;;;;;24.09;41.17;91033.84;4984634;28;20054;-88
2021/07/19 11:42:41;;;;;;;20.40;4.57;;;;;;;24.08;41.65;91026.28;5004447;28;20104;-87
2021/07/19 11:45:15;;;;;;;15.50;4.40;;;;;;;23.93;42.56;91030.34;4985134;28;20022;-88
2021/07/19 11:47:53;;;;;;;11.68;5.90;;;;;;;23.46;49.01;91030.34;4987084;28;20037;-87
2021/07/19 11:50:22;;;;;;;13.75;5.03;;;;;;;23.16;51.66;91028.53;5001821;28;20072;-87
2021/07/19 11:52:50;;;;;;;11.02;5.07;;;;;;;23.06;50.67;91030.19;4979488;28;20026;-87